Time;durP1;ratioP1;P1;durP2;ratioP2;P2;SDS_P1;SDS_P2;PMS_P1;PMS_P2;Temp;Humidity;BMP_temperature;BMP_pressure;BME280_temperature;BME280_humidity;BME280_pressure;Samples;Min_cycle;Max_cycle;Signal;HPM_P1;HPM_P2
2022/12/15 00:40:41;;;;;;;19.87;9.67;;;;;;;;;;5018648;28;20683;-72
2022/12/15 00:43:10;;;;;;;26.70;12.30;;;;;;;;;;5028952;28;20230;-73
2022/12/15 00:48:20;;;;;;;23.97;11.40;;;;;;;;;;5014879;28;20260;-70
2022/12/15 00:50:51;;;;;;;28.20;12.33;;;;;;;;;;5022378;28;20213;-71
2022/12/15 01:20:41;;;;;;;30.47;11.73;;;;;;;;;;5023690;28;20272;-71
2022/12/15 01:23:06;;;;;;;27.93;12.43;;;;;;;;;;5025870;28;20538;-71
2022/12/15 01:25:32;;;;;;;32.37;12.73;;;;;;;;;;5026509;28;20201;-71
2022/12/15 01:27:58;;;;;;;28.43;11.67;;;;;;;;;;5021509;28;20207;-71
2022/12/15 01:30:25;;;;;;;22.03;10.23;;;;;;;;;;5026621;28;20417;-71
2022/12/15 01:32:51;;;;;;;34.00;11.73;;;;;;;;;;5023590;28;20182;-71
2022/12/15 01:35:17;;;;;;;31.40;12.83;;;;;;;;;;5023045;28;20620;-71
2022/12/15 01:37:43;;;;;;;28.10;12.30;;;;;;;;;;5027532;28;20218;-71
2022/12/15 01:42:57;;;;;;;31.23;13.37;;;;;;;;;;5023882;28;20255;-71
2022/12/15 01:45:23;;;;;;;22.47;11.00;;;;;;;;;;5026074;28;20182;-71
2022/12/15 01:47:54;;;;;;;34.13;12.73;;;;;;;;;;5026684;28;20285;-71
2022/12/15 01:50:20;;;;;;;31.10;11.67;;;;;;;;;;5026106;28;20257;-71
2022/12/15 01:52:47;;;;;;;28.83;12.43;;;;;;;;;;5023265;28;20166;-71
2022/12/15 01:55:14;;;;;;;26.77;12.50;;;;;;;;;;5026544;28;20516;-70
2022/12/15 01:57:39;;;;;;;27.87;12.20;;;;;;;;;;5024378;28;20186;-70
2022/12/15 02:00:07;;;;;;;29.67;13.13;;;;;;;;;;5015006;28;20613;-70
2022/12/15 02:02:35;;;;;;;27.50;11.53;;;;;;;;;;5026312;28;20457;-70
2022/12/15 02:05:02;;;;;;;27.77;12.70;;;;;;;;;;5024299;28;20669;-70
2022/12/15 02:07:27;;;;;;;29.87;13.60;;;;;;;;;;5024971;28;20187;-71
2022/12/15 02:09:57;;;;;;;27.93;12.30;;;;;;;;;;5018448;28;20181;-71
2022/12/15 02:12:57;;;;;;;33.37;13.57;;;;;;;;;;5018333;28;20429;-70
2022/12/15 02:15:35;;;;;;;27.37;11.53;;;;;;;;;;5021671;28;20249;-70
2022/12/15 02:18:23;;;;;;;30.87;12.00;;;;;;;;;;5027168;28;20253;-70
2022/12/15 02:21:08;;;;;;;28.20;12.20;;;;;;;;;;5020636;28;20267;-70
2022/12/15 02:24:02;;;;;;;22.33;10.63;;;;;;;;;;5019745;28;20271;-70
2022/12/15 02:27:04;;;;;;;26.27;11.30;;;;;;;;;;5021997;28;20228;-70
2022/12/15 02:30:07;;;;;;;28.10;12.67;;;;;;;;;;5019363;28;20276;-70
2022/12/15 02:32:46;;;;;;;24.77;10.67;;;;;;;;;;5029434;28;20180;-70
2022/12/15 02:35:22;;;;;;;30.20;12.93;;;;;;;;;;5024820;28;20186;-70
2022/12/15 02:37:48;;;;;;;29.03;12.17;;;;;;;;;;5026982;28;20744;-70
2022/12/15 02:40:13;;;;;;;27.33;11.80;;;;;;;;;;5029379;28;20277;-70
2022/12/15 02:42:58;;;;;;;33.87;12.93;;;;;;;;;;5025740;28;20189;-70
2022/12/15 02:45:39;;;;;;;26.07;12.13;;;;;;;;;;5027885;28;20509;-70
2022/12/15 02:48:30;;;;;;;27.90;12.97;;;;;;;;;;5020641;28;20263;-71
2022/12/15 02:51:03;;;;;;;32.10;12.17;;;;;;;;;;5026661;28;20170;-71
2022/12/15 02:54:08;;;;;;;30.53;13.03;;;;;;;;;;5024000;28;20687;-71
2022/12/15 02:56:44;;;;;;;29.93;11.50;;;;;;;;;;5015868;28;20185;-70
2022/12/15 02:59:14;;;;;;;29.03;12.10;;;;;;;;;;5028059;28;20244;-71
2022/12/15 03:01:48;;;;;;;34.70;13.40;;;;;;;;;;5021634;28;20312;-71
2022/12/15 03:04:15;;;;;;;24.03;10.47;;;;;;;;;;5029015;28;20217;-71
2022/12/15 03:06:41;;;;;;;31.33;12.50;;;;;;;;;;5022167;28;20534;-71
2022/12/15 03:09:06;;;;;;;25.90;12.20;;;;;;;;;;5028358;28;20204;-71
2022/12/15 03:11:32;;;;;;;28.87;12.77;;;;;;;;;;5015559;28;20193;-71
2022/12/15 03:13:57;;;;;;;32.43;12.60;;;;;;;;;;5021745;28;20921;-71
2022/12/15 03:16:22;;;;;;;26.13;11.37;;;;;;;;;;5020035;28;20197;-71
2022/12/15 03:18:48;;;;;;;29.30;11.67;;;;;;;;;;5020813;28;20175;-72
2022/12/15 03:21:13;;;;;;;32.90;12.17;;;;;;;;;;5018480;28;20186;-71
2022/12/15 03:23:38;;;;;;;25.50;12.63;;;;;;;;;;5027705;28;20208;-71
2022/12/15 03:26:05;;;;;;;27.43;12.47;;;;;;;;;;5023765;28;20204;-72
2022/12/15 03:28:32;;;;;;;27.07;11.73;;;;;;;;;;5018626;28;20262;-71
2022/12/15 03:30:57;;;;;;;25.47;13.00;;;;;;;;;;5027843;28;20194;-71
2022/12/15 03:33:23;;;;;;;24.97;11.30;;;;;;;;;;5027144;28;20213;-71
2022/12/15 03:35:49;;;;;;;28.37;12.27;;;;;;;;;;5029768;28;20201;-71
2022/12/15 03:38:15;;;;;;;27.43;12.03;;;;;;;;;;5024374;28;20598;-72
2022/12/15 03:40:40;;;;;;;29.77;13.00;;;;;;;;;;5029384;28;20174;-71
2022/12/15 03:43:06;;;;;;;28.83;12.97;;;;;;;;;;5021426;28;20202;-72
2022/12/15 03:45:31;;;;;;;28.30;12.47;;;;;;;;;;5021769;28;20277;-72
2022/12/15 03:47:56;;;;;;;29.63;12.30;;;;;;;;;;5017236;28;20617;-71
2022/12/15 03:50:25;;;;;;;23.17;11.80;;;;;;;;;;5026160;28;20556;-71
2022/12/15 03:52:56;;;;;;;28.57;12.83;;;;;;;;;;5021161;28;20179;-71
2022/12/15 03:55:23;;;;;;;24.13;11.57;;;;;;;;;;5028847;28;20174;-71
2022/12/15 03:57:49;;;;;;;27.23;12.50;;;;;;;;;;5026877;28;20236;-71
2022/12/15 04:00:17;;;;;;;30.77;13.27;;;;;;;;;;5027311;28;20202;-71
2022/12/15 04:02:43;;;;;;;28.23;12.90;;;;;;;;;;5028866;28;20178;-71
2022/12/15 04:05:14;;;;;;;28.77;12.30;;;;;;;;;;5017399;28;20236;-71
2022/12/15 04:07:40;;;;;;;25.80;13.00;;;;;;;;;;5029564;28;20572;-71
2022/12/15 04:10:05;;;;;;;26.30;12.17;;;;;;;;;;5027783;28;20178;-71
2022/12/15 04:12:31;;;;;;;26.07;11.60;;;;;;;;;;5019129;28;20297;-71
2022/12/15 04:14:56;;;;;;;27.97;12.27;;;;;;;;;;5028528;28;20253;-72
2022/12/15 04:17:21;;;;;;;29.80;12.90;;;;;;;;;;5025756;28;20672;-71
2022/12/15 04:22:30;;;;;;;27.37;11.63;;;;;;;;;;5024051;28;20196;-71
2022/12/15 05:33:19;;;;;;;27.77;12.57;;;;;;;;;;5023328;28;20566;-70
2022/12/15 05:35:44;;;;;;;28.13;12.03;;;;;;;;;;5021679;28;20190;-70
2022/12/15 05:38:09;;;;;;;26.23;11.80;;;;;;;;;;5022024;28;21350;-70
2022/12/15 05:40:35;;;;;;;37.00;13.17;;;;;;;;;;5024621;28;20611;-71
2022/12/15 05:43:00;;;;;;;25.60;11.73;;;;;;;;;;5027027;28;20177;-71
2022/12/15 05:45:26;;;;;;;29.77;12.70;;;;;;;;;;5025374;28;20343;-73
2022/12/15 05:47:53;;;;;;;25.67;12.40;;;;;;;;;;5019033;28;20202;-71
2022/12/15 05:50:19;;;;;;;24.77;10.80;;;;;;;;;;5022242;28;20231;-71
2022/12/15 05:52:45;;;;;;;25.50;12.57;;;;;;;;;;5022227;28;20186;-71
2022/12/15 05:55:10;;;;;;;20.60;10.07;;;;;;;;;;5021394;28;20292;-71
2022/12/15 05:57:35;;;;;;;29.23;12.30;;;;;;;;;;5019995;28;20641;-73
2022/12/15 06:00:03;;;;;;;27.87;12.43;;;;;;;;;;5023365;28;20584;-71
2022/12/15 06:02:28;;;;;;;28.33;13.20;;;;;;;;;;5019133;28;20853;-70
2022/12/15 06:04:53;;;;;;;30.27;12.67;;;;;;;;;;5022165;28;20189;-70
2022/12/15 06:07:19;;;;;;;31.57;13.07;;;;;;;;;;5016104;28;20381;-70
2022/12/15 06:09:44;;;;;;;26.13;11.80;;;;;;;;;;5012164;28;20237;-70
2022/12/15 06:12:10;;;;;;;27.10;12.37;;;;;;;;;;5019413;28;20189;-70
2022/12/15 06:14:35;;;;;;;27.77;12.23;;;;;;;;;;5021537;28;20633;-70
2022/12/15 06:17:01;;;;;;;36.77;13.60;;;;;;;;;;5024033;28;20748;-70
2022/12/15 06:19:26;;;;;;;29.07;13.07;;;;;;;;;;5023985;28;20737;-71
2022/12/15 06:21:51;;;;;;;22.53;10.97;;;;;;;;;;5010187;28;20490;-70
2022/12/15 06:24:17;;;;;;;30.70;11.77;;;;;;;;;;5019975;28;20224;-70
2022/12/15 06:26:42;;;;;;;28.97;12.23;;;;;;;;;;5017469;28;20187;-70
2022/12/15 06:29:10;;;;;;;27.63;12.73;;;;;;;;;;5011064;28;20252;-70
2022/12/15 06:31:36;;;;;;;28.13;11.70;;;;;;;;;;5026532;28;20213;-70
2022/12/15 06:34:07;;;;;;;30.53;12.40;;;;;;;;;;5016240;28;20178;-70
2022/12/15 06:36:33;;;;;;;29.07;12.27;;;;;;;;;;5021222;28;20229;-70
2022/12/15 06:39:00;;;;;;;24.87;11.73;;;;;;;;;;5020223;28;20224;-70
2022/12/15 06:41:26;;;;;;;25.13;11.47;;;;;;;;;;5015480;28;20182;-71
2022/12/15 06:43:54;;;;;;;29.80;12.07;;;;;;;;;;5020831;28;20189;-70
2022/12/15 06:46:20;;;;;;;27.23;11.83;;;;;;;;;;5014253;28;20179;-70
2022/12/15 06:48:46;;;;;;;25.40;11.67;;;;;;;;;;5027633;28;20198;-70
2022/12/15 06:51:12;;;;;;;30.20;12.60;;;;;;;;;;5029862;28;20270;-71
2022/12/15 06:53:39;;;;;;;24.43;11.33;;;;;;;;;;5026019;28;20584;-70
2022/12/15 06:56:12;;;;;;;25.87;12.27;;;;;;;;;;5016544;28;20186;-72
2022/12/15 06:58:37;;;;;;;28.40;12.30;;;;;;;;;;5013848;28;20224;-71
2022/12/15 07:01:07;;;;;;;31.27;12.40;;;;;;;;;;5010156;28;20255;-70
2022/12/15 07:03:33;;;;;;;30.83;11.73;;;;;;;;;;5012871;28;20202;-70
2022/12/15 07:06:07;;;;;;;28.70;14.07;;;;;;;;;;5013765;28;20194;-70
2022/12/15 07:08:33;;;;;;;34.27;12.90;;;;;;;;;;5014027;28;20337;-70
2022/12/15 07:10:58;;;;;;;29.07;12.10;;;;;;;;;;5007614;28;20270;-70
2022/12/15 07:13:24;;;;;;;31.03;13.67;;;;;;;;;;5011850;28;20545;-69
2022/12/15 07:15:50;;;;;;;28.63;12.07;;;;;;;;;;5029287;28;20220;-70
2022/12/15 07:18:16;;;;;;;31.93;13.63;;;;;;;;;;5027894;28;20198;-70
2022/12/15 07:20:41;;;;;;;29.73;13.17;;;;;;;;;;5013015;28;20175;-70
2022/12/15 07:23:08;;;;;;;32.50;14.23;;;;;;;;;;5013586;28;20662;-69
2022/12/15 07:25:38;;;;;;;27.33;12.23;;;;;;;;;;5016286;28;20784;-70
2022/12/15 07:28:04;;;;;;;32.03;14.50;;;;;;;;;;5012550;28;20198;-70
2022/12/15 07:30:30;;;;;;;32.83;14.80;;;;;;;;;;5013704;28;20182;-70
2022/12/15 07:32:55;;;;;;;34.47;13.17;;;;;;;;;;5014829;28;20187;-70
2022/12/15 07:35:20;;;;;;;30.03;13.83;;;;;;;;;;5010330;28;20665;-71
2022/12/15 07:37:46;;;;;;;28.13;13.63;;;;;;;;;;5021684;28;20260;-71
2022/12/15 07:40:11;;;;;;;31.97;14.27;;;;;;;;;;5013063;28;20183;-70
2022/12/15 07:42:37;;;;;;;37.67;14.27;;;;;;;;;;5023451;28;20179;-70
2022/12/15 07:45:04;;;;;;;27.90;13.33;;;;;;;;;;5012840;28;20194;-70
2022/12/15 07:47:29;;;;;;;30.83;13.70;;;;;;;;;;5012296;28;20171;-70
2022/12/15 07:49:55;;;;;;;28.40;13.13;;;;;;;;;;5029778;28;20175;-72
2022/12/15 07:52:20;;;;;;;29.97;14.57;;;;;;;;;;5017207;28;20590;-70
2022/12/15 07:54:45;;;;;;;35.67;14.73;;;;;;;;;;5024434;28;20735;-70
2022/12/15 07:57:11;;;;;;;26.53;13.03;;;;;;;;;;5013094;28;20701;-71
2022/12/15 07:59:36;;;;;;;35.60;13.50;;;;;;;;;;5018161;28;20806;-71
2022/12/15 08:02:05;;;;;;;37.43;14.80;;;;;;;;;;5016138;28;20177;-71
2022/12/15 08:04:30;;;;;;;31.87;14.20;;;;;;;;;;5027804;28;20249;-70
2022/12/15 08:06:57;;;;;;;33.23;16.07;;;;;;;;;;5023426;28;20179;-73
2022/12/15 08:09:23;;;;;;;36.13;15.43;;;;;;;;;;5018923;28;20206;-70
2022/12/15 08:11:49;;;;;;;36.70;15.73;;;;;;;;;;5018115;28;20232;-70
2022/12/15 08:14:15;;;;;;;33.87;14.97;;;;;;;;;;5013394;28;20659;-71
2022/12/15 08:16:40;;;;;;;29.97;14.80;;;;;;;;;;5013613;28;20205;-70
2022/12/15 08:19:08;;;;;;;38.70;15.77;;;;;;;;;;5019537;28;20476;-72
2022/12/15 08:21:34;;;;;;;38.70;15.83;;;;;;;;;;5014751;28;20665;-72
2022/12/15 08:23:59;;;;;;;33.37;15.47;;;;;;;;;;5009648;28;20236;-71
2022/12/15 08:26:25;;;;;;;36.50;16.77;;;;;;;;;;5017506;28;20673;-71
2022/12/15 08:28:51;;;;;;;38.93;16.63;;;;;;;;;;5012608;28;20681;-72
2022/12/15 08:31:19;;;;;;;40.13;17.63;;;;;;;;;;5011808;28;20438;-71
2022/12/15 08:33:45;;;;;;;41.30;17.83;;;;;;;;;;5010847;28;20179;-71
2022/12/15 08:36:13;;;;;;;39.10;18.17;;;;;;;;;;5020022;28;20233;-71
2022/12/15 08:38:39;;;;;;;36.90;16.83;;;;;;;;;;5015241;28;20167;-72
2022/12/15 08:41:28;;;;;;;40.50;18.77;;;;;;;;;;5014470;28;20189;-70
2022/12/15 08:43:55;;;;;;;37.63;18.90;;;;;;;;;;5026937;28;20196;-70
2022/12/15 08:46:25;;;;;;;55.23;18.10;;;;;;;;;;5022747;28;20520;-71
2022/12/15 08:48:51;;;;;;;40.60;19.60;;;;;;;;;;5013535;28;20276;-71
2022/12/15 08:51:18;;;;;;;38.87;18.53;;;;;;;;;;5027690;28;20256;-71
2022/12/15 08:53:44;;;;;;;37.93;18.60;;;;;;;;;;5015906;28;20191;-71
2022/12/15 08:56:17;;;;;;;37.07;18.13;;;;;;;;;;5024754;28;20269;-71
2022/12/15 08:58:43;;;;;;;39.33;18.83;;;;;;;;;;5028837;28;20181;-71
2022/12/15 09:01:16;;;;;;;41.47;18.40;;;;;;;;;;5024900;28;20217;-71
2022/12/15 09:03:42;;;;;;;41.17;19.20;;;;;;;;;;5015512;28;20182;-71
2022/12/15 09:06:14;;;;;;;41.57;19.47;;;;;;;;;;5036209;28;20658;-71
2022/12/15 09:08:40;;;;;;;49.87;19.27;;;;;;;;;;5025698;28;20633;-70
2022/12/15 09:11:06;;;;;;;42.63;20.43;;;;;;;;;;5012969;28;20244;-70
2022/12/15 09:13:31;;;;;;;40.70;19.77;;;;;;;;;;5020724;28;20170;-70
2022/12/15 09:15:58;;;;;;;38.57;19.90;;;;;;;;;;5021386;28;20795;-73
2022/12/15 09:18:23;;;;;;;36.03;18.73;;;;;;;;;;5033183;28;20162;-70
2022/12/15 09:20:49;;;;;;;43.97;20.53;;;;;;;;;;5017434;28;20201;-70
2022/12/15 09:23:14;;;;;;;47.13;21.07;;;;;;;;;;5017843;28;20182;-70
2022/12/15 09:25:39;;;;;;;43.13;21.20;;;;;;;;;;5024057;28;20204;-70
2022/12/15 09:28:05;;;;;;;40.70;21.00;;;;;;;;;;5009699;28;20264;-70
2022/12/15 09:30:30;;;;;;;38.77;20.50;;;;;;;;;;5020759;28;20269;-70
2022/12/15 09:32:55;;;;;;;39.87;19.53;;;;;;;;;;5024980;28;20309;-70
2022/12/15 09:35:21;;;;;;;38.23;19.83;;;;;;;;;;5027787;28;20210;-69
2022/12/15 09:37:46;;;;;;;41.10;20.30;;;;;;;;;;5013126;28;20241;-70
2022/12/15 09:40:12;;;;;;;36.03;19.73;;;;;;;;;;5017554;28;20182;-71
2022/12/15 09:42:38;;;;;;;44.87;21.27;;;;;;;;;;5029947;28;20182;-70
2022/12/15 09:45:21;;;;;;;40.70;21.37;;;;;;;;;;5031955;28;20178;-70
2022/12/15 09:48:02;;;;;;;46.83;21.10;;;;;;;;;;5023693;28;20227;-71
2022/12/15 09:50:33;;;;;;;41.90;20.00;;;;;;;;;;5027612;28;20190;-71
2022/12/15 09:52:59;;;;;;;39.93;20.47;;;;;;;;;;5022897;28;20175;-70
2022/12/15 09:55:27;;;;;;;38.93;20.30;;;;;;;;;;5019540;28;20194;-71
2022/12/15 09:57:54;;;;;;;44.07;21.90;;;;;;;;;;5025505;28;20175;-71
2022/12/15 10:00:28;;;;;;;38.83;20.50;;;;;;;;;;5018020;28;20225;-70
2022/12/15 10:03:30;;;;;;;40.30;21.43;;;;;;;;;;5027485;28;20182;-70
2022/12/15 10:06:18;;;;;;;43.20;20.27;;;;;;;;;;5022258;28;20194;-70
2022/12/15 10:08:54;;;;;;;37.17;20.60;;;;;;;;;;5018126;28;20300;-70
2022/12/15 10:11:48;;;;;;;39.43;20.17;;;;;;;;;;5027632;28;20213;-70
2022/12/15 10:14:28;;;;;;;41.17;21.60;;;;;;;;;;5035400;28;20660;-70
2022/12/15 10:17:20;;;;;;;40.70;21.67;;;;;;;;;;5022654;28;20241;-70
2022/12/15 10:19:58;;;;;;;43.50;21.43;;;;;;;;;;5013585;28;20695;-70
2022/12/15 10:22:36;;;;;;;41.13;22.43;;;;;;;;;;5020049;28;20190;-69
2022/12/15 10:25:19;;;;;;;41.23;22.10;;;;;;;;;;5022329;28;20179;-69
2022/12/15 10:28:01;;;;;;;39.67;21.10;;;;;;;;;;5014398;28;20182;-68
2022/12/15 10:30:26;;;;;;;38.73;21.30;;;;;;;;;;5029224;28;20186;-69
2022/12/15 10:33:02;;;;;;;41.27;20.50;;;;;;;;;;5027759;28;20547;-70
2022/12/15 10:35:33;;;;;;;42.10;22.70;;;;;;;;;;5014040;28;20174;-69
2022/12/15 10:38:04;;;;;;;40.27;19.80;;;;;;;;;;5014703;28;20198;-69
2022/12/15 10:40:48;;;;;;;37.77;21.90;;;;;;;;;;5028546;28;20193;-70
2022/12/15 10:43:23;;;;;;;42.70;22.40;;;;;;;;;;5036251;28;20212;-69
2022/12/15 10:45:58;;;;;;;40.23;22.07;;;;;;;;;;5027367;28;20625;-68
2022/12/15 10:48:24;;;;;;;43.00;22.40;;;;;;;;;;5029956;28;20233;-68
2022/12/15 10:50:49;;;;;;;43.20;24.37;;;;;;;;;;5027135;28;20201;-68
2022/12/15 10:53:38;;;;;;;43.43;22.87;;;;;;;;;;5025685;28;20494;-67
2022/12/15 10:56:05;;;;;;;41.43;22.70;;;;;;;;;;5026101;28;20201;-70
2022/12/15 10:58:30;;;;;;;39.50;21.00;;;;;;;;;;5023656;28;20179;-68
2022/12/15 11:01:13;;;;;;;40.40;22.70;;;;;;;;;;5025910;28;20224;-68
2022/12/15 11:03:38;;;;;;;43.13;23.30;;;;;;;;;;5015253;28;20236;-67
2022/12/15 11:06:14;;;;;;;41.63;22.70;;;;;;;;;;5013223;28;20179;-67
2022/12/15 11:08:42;;;;;;;42.93;23.43;;;;;;;;;;5021279;28;20182;-68
2022/12/15 11:14:24;;;;;;;42.50;22.87;;;;;;;;;;5011954;28;20281;-68
2022/12/15 11:16:57;;;;;;;48.63;24.27;;;;;;;;;;5016882;28;20175;-68
2022/12/15 11:19:41;;;;;;;42.90;24.60;;;;;;;;;;5011879;28;20190;-68
2022/12/15 11:22:30;;;;;;;40.27;22.33;;;;;;;;;;5013983;28;20186;-67
2022/12/15 11:25:29;;;;;;;42.20;23.67;;;;;;;;;;5011424;28;20209;-67
2022/12/15 11:27:58;;;;;;;42.60;23.53;;;;;;;;;;5014309;28;20193;-67
2022/12/15 11:30:32;;;;;;;41.60;24.17;;;;;;;;;;5012775;28;20183;-68
2022/12/15 11:32:59;;;;;;;43.87;22.93;;;;;;;;;;5010405;28;20186;-68
2022/12/15 11:35:31;;;;;;;39.57;23.07;;;;;;;;;;5016252;28;20669;-67
2022/12/15 11:38:23;;;;;;;39.13;21.83;;;;;;;;;;5016435;28;20222;-67
2022/12/15 11:40:49;;;;;;;37.23;22.37;;;;;;;;;;5013624;28;20183;-70
2022/12/15 11:43:53;;;;;;;41.30;22.83;;;;;;;;;;5014025;28;20187;-69
2022/12/15 11:46:26;;;;;;;41.17;23.47;;;;;;;;;;5014286;28;20736;-69
2022/12/15 11:49:12;;;;;;;41.40;22.50;;;;;;;;;;5011834;28;20273;-67
2022/12/15 11:51:49;;;;;;;39.43;22.90;;;;;;;;;;5012940;28;20190;-69
2022/12/15 11:54:31;;;;;;;41.27;23.30;;;;;;;;;;5021657;28;20657;-67
2022/12/15 11:57:03;;;;;;;40.83;23.13;;;;;;;;;;5027997;28;20251;-67
2022/12/15 11:59:44;;;;;;;39.17;23.30;;;;;;;;;;5028057;28;20212;-67
2022/12/15 12:02:34;;;;;;;39.33;22.93;;;;;;;;;;5019995;28;20255;-68
2022/12/15 12:05:15;;;;;;;38.87;22.53;;;;;;;;;;5012417;28;20283;-68
2022/12/15 12:07:47;;;;;;;34.33;20.97;;;;;;;;;;5029163;28;20261;-68
2022/12/15 12:10:37;;;;;;;41.10;21.20;;;;;;;;;;5021214;28;20179;-68
2022/12/15 12:13:18;;;;;;;37.13;21.00;;;;;;;;;;5027293;28;20661;-70
2022/12/15 12:16:05;;;;;;;36.57;21.77;;;;;;;;;;5020043;28;20186;-68
2022/12/15 12:18:38;;;;;;;38.53;20.17;;;;;;;;;;5015115;28;20197;-68
2022/12/15 12:21:12;;;;;;;35.73;22.17;;;;;;;;;;5014935;28;20186;-69
2022/12/15 12:24:11;;;;;;;38.27;22.10;;;;;;;;;;5017854;28;20198;-69
2022/12/15 12:26:52;;;;;;;37.90;20.43;;;;;;;;;;5019925;28;20190;-68
2022/12/15 12:29:32;;;;;;;38.77;21.83;;;;;;;;;;5014508;28;20341;-69
2022/12/15 12:32:23;;;;;;;37.97;21.60;;;;;;;;;;5027505;28;20612;-68
2022/12/15 12:35:06;;;;;;;37.77;22.03;;;;;;;;;;5016042;28;20657;-69
2022/12/15 12:37:51;;;;;;;38.30;21.87;;;;;;;;;;5015265;28;20698;-69
2022/12/15 12:40:23;;;;;;;36.30;21.90;;;;;;;;;;5014375;28;20650;-69
2022/12/15 12:42:56;;;;;;;36.47;21.10;;;;;;;;;;5013733;28;20245;-69
2022/12/15 12:45:33;;;;;;;35.80;21.37;;;;;;;;;;5012444;28;20673;-69
2022/12/15 12:48:14;;;;;;;39.43;21.50;;;;;;;;;;5011840;28;20182;-69
2022/12/15 12:50:39;;;;;;;36.17;21.37;;;;;;;;;;5013771;28;20204;-69
2022/12/15 12:53:05;;;;;;;35.47;21.50;;;;;;;;;;5031346;28;20215;-69
2022/12/15 12:55:42;;;;;;;34.50;22.37;;;;;;;;;;5021053;28;20237;-69
2022/12/15 12:58:29;;;;;;;34.33;20.50;;;;;;;;;;5025335;28;20178;-69
2022/12/15 13:01:11;;;;;;;38.63;21.60;;;;;;;;;;5022982;28;20404;-69
2022/12/15 13:03:41;;;;;;;39.17;21.53;;;;;;;;;;5031781;28;20189;-69
2022/12/15 13:06:39;;;;;;;39.33;22.70;;;;;;;;;;5016741;28;20736;-69
2022/12/15 13:09:16;;;;;;;39.20;22.97;;;;;;;;;;5026878;28;20238;-70
2022/12/15 13:11:47;;;;;;;38.63;22.10;;;;;;;;;;5027205;28;20178;-68
2022/12/15 13:14:16;;;;;;;36.63;20.80;;;;;;;;;;5013767;28;20270;-68
2022/12/15 13:16:44;;;;;;;37.93;21.67;;;;;;;;;;5022631;28;20179;-69
2022/12/15 13:19:10;;;;;;;39.23;22.47;;;;;;;;;;5015182;28;20592;-69
2022/12/15 13:21:42;;;;;;;35.23;21.90;;;;;;;;;;5018748;28;20181;-69
2022/12/15 13:24:28;;;;;;;35.57;21.07;;;;;;;;;;5026835;28;20192;-68
2022/12/15 13:27:09;;;;;;;39.90;21.47;;;;;;;;;;5019771;28;20201;-69
2022/12/15 13:29:55;;;;;;;40.70;23.10;;;;;;;;;;5032704;28;20312;-69
2022/12/15 13:32:35;;;;;;;38.47;23.33;;;;;;;;;;5028105;28;20820;-69
2022/12/15 13:35:13;;;;;;;39.93;22.90;;;;;;;;;;5021106;28;20224;-69
2022/12/15 13:38:01;;;;;;;37.83;22.33;;;;;;;;;;5027774;28;20243;-69
2022/12/15 13:40:34;;;;;;;43.20;24.03;;;;;;;;;;5031369;28;20178;-69
2022/12/15 13:43:03;;;;;;;42.00;23.47;;;;;;;;;;5016314;28;20202;-69
2022/12/15 13:45:47;;;;;;;35.43;21.67;;;;;;;;;;5023338;28;20571;-69
2022/12/15 13:48:20;;;;;;;37.13;22.90;;;;;;;;;;5015862;28;20197;-69
2022/12/15 13:50:54;;;;;;;39.27;22.57;;;;;;;;;;5012468;28;20190;-69
2022/12/15 13:53:24;;;;;;;38.77;23.30;;;;;;;;;;5014915;28;20182;-68
2022/12/15 13:56:20;;;;;;;39.50;24.10;;;;;;;;;;5009010;28;20278;-68
2022/12/15 13:58:54;;;;;;;40.03;22.93;;;;;;;;;;5013413;28;20689;-69
2022/12/15 14:01:25;;;;;;;38.27;22.70;;;;;;;;;;5014697;28;20293;-68
2022/12/15 14:04:05;;;;;;;41.40;22.87;;;;;;;;;;5012584;28;20268;-68
2022/12/15 14:06:39;;;;;;;39.47;23.07;;;;;;;;;;5013322;28;20183;-68
2022/12/15 14:09:10;;;;;;;39.60;23.63;;;;;;;;;;5020405;28;20210;-68
2022/12/15 14:11:36;;;;;;;37.57;23.23;;;;;;;;;;5018615;28;20193;-68
2022/12/15 14:14:02;;;;;;;47.63;25.80;;;;;;;;;;5011468;28;20193;-68
2022/12/15 14:16:32;;;;;;;45.53;25.30;;;;;;;;;;5009883;28;20200;-67
2022/12/15 14:19:17;;;;;;;40.53;23.83;;;;;;;;;;5011512;28;20194;-67
2022/12/15 14:21:52;;;;;;;42.23;24.60;;;;;;;;;;5013492;28;20264;-67
2022/12/15 14:24:30;;;;;;;40.40;25.00;;;;;;;;;;5024361;28;20281;-68
2022/12/15 14:26:56;;;;;;;42.93;25.43;;;;;;;;;;5030415;28;20194;-68
2022/12/15 14:29:23;;;;;;;39.90;24.93;;;;;;;;;;5024183;28;20213;-68
2022/12/15 14:31:52;;;;;;;42.40;25.50;;;;;;;;;;5030372;28;20193;-68
2022/12/15 14:34:23;;;;;;;44.07;25.03;;;;;;;;;;5023641;28;20613;-68
2022/12/15 14:36:50;;;;;;;42.80;25.67;;;;;;;;;;5026877;28;20233;-68
2022/12/15 14:39:42;;;;;;;46.73;26.63;;;;;;;;;;5013642;28;20619;-68
2022/12/15 14:42:18;;;;;;;44.83;25.03;;;;;;;;;;5018481;28;20197;-68
2022/12/15 14:44:45;;;;;;;43.83;26.57;;;;;;;;;;5015162;28;20258;-68
2022/12/15 14:47:27;;;;;;;44.87;25.90;;;;;;;;;;5019250;28;20187;-68
2022/12/15 14:49:55;;;;;;;42.77;25.40;;;;;;;;;;5014722;28;20195;-68
2022/12/15 14:52:26;;;;;;;44.47;26.13;;;;;;;;;;5017139;28;20650;-68
2022/12/15 14:55:00;;;;;;;43.40;24.77;;;;;;;;;;5017415;28;20587;-68
2022/12/15 14:57:36;;;;;;;41.43;25.17;;;;;;;;;;5013845;28;20205;-68
2022/12/15 15:00:34;;;;;;;44.23;25.73;;;;;;;;;;5012309;28;20716;-68
2022/12/15 15:03:20;;;;;;;46.70;25.13;;;;;;;;;;5013120;28;20225;-67
2022/12/15 15:05:52;;;;;;;43.40;25.60;;;;;;;;;;5026722;28;20216;-68
2022/12/15 15:08:23;;;;;;;43.27;25.87;;;;;;;;;;5017461;28;20207;-67
2022/12/15 15:10:49;;;;;;;41.00;24.53;;;;;;;;;;5012155;28;20620;-68
2022/12/15 15:13:21;;;;;;;43.07;25.93;;;;;;;;;;5016824;28;20199;-68
2022/12/15 15:15:56;;;;;;;44.93;25.60;;;;;;;;;;5014710;28;20178;-68
2022/12/15 15:18:25;;;;;;;44.07;24.63;;;;;;;;;;5015945;28;20201;-68
2022/12/15 15:20:56;;;;;;;45.07;26.07;;;;;;;;;;5021340;28;22623;-68
2022/12/15 15:23:21;;;;;;;51.00;27.80;;;;;;;;;;5012035;28;20179;-68
2022/12/15 15:26:05;;;;;;;42.67;25.97;;;;;;;;;;5015378;28;20209;-68
2022/12/15 15:28:36;;;;;;;51.03;28.07;;;;;;;;;;5011039;28;20217;-68
2022/12/15 15:31:24;;;;;;;47.60;26.83;;;;;;;;;;5010563;28;20241;-68
2022/12/15 15:33:50;;;;;;;49.67;27.67;;;;;;;;;;5010136;28;20480;-68
2022/12/15 15:36:16;;;;;;;52.93;28.17;;;;;;;;;;5012716;28;20706;-68
2022/12/15 15:38:42;;;;;;;46.50;27.57;;;;;;;;;;5014507;28;20210;-68
2022/12/15 15:41:18;;;;;;;52.00;28.33;;;;;;;;;;5017459;28;20548;-69
2022/12/15 15:43:44;;;;;;;48.70;27.17;;;;;;;;;;5013928;28;20194;-69
2022/12/15 15:46:13;;;;;;;48.17;27.23;;;;;;;;;;5015980;28;20612;-68
2022/12/15 15:48:43;;;;;;;47.37;26.73;;;;;;;;;;5012741;28;20287;-68
2022/12/15 15:51:09;;;;;;;48.67;27.30;;;;;;;;;;5016333;28;20654;-68
2022/12/15 15:53:36;;;;;;;51.27;28.60;;;;;;;;;;5015323;28;20191;-68
2022/12/15 15:56:07;;;;;;;49.47;26.40;;;;;;;;;;5017542;28;20187;-68
2022/12/15 15:58:33;;;;;;;45.80;27.17;;;;;;;;;;5019384;28;20182;-69
2022/12/15 16:00:58;;;;;;;47.87;27.20;;;;;;;;;;5020004;28;20204;-68
2022/12/15 16:03:24;;;;;;;48.90;26.43;;;;;;;;;;5028950;28;20270;-68
2022/12/15 16:05:49;;;;;;;50.80;27.70;;;;;;;;;;5026687;28;20634;-68
2022/12/15 16:08:18;;;;;;;50.57;27.90;;;;;;;;;;5027462;28;20608;-68
2022/12/15 16:10:46;;;;;;;48.97;28.00;;;;;;;;;;5026332;28;20380;-68
2022/12/15 16:13:15;;;;;;;48.27;30.53;;;;;;;;;;5018451;28;20192;-69
2022/12/15 16:15:41;;;;;;;51.03;28.17;;;;;;;;;;5011191;28;20187;-68
2022/12/15 16:18:06;;;;;;;48.57;28.87;;;;;;;;;;5014430;28;20282;-68
2022/12/15 16:20:32;;;;;;;55.17;30.10;;;;;;;;;;5012243;28;20194;-68
2022/12/15 16:23:01;;;;;;;44.87;27.47;;;;;;;;;;5012106;28;20187;-68
2022/12/15 16:25:36;;;;;;;49.57;29.00;;;;;;;;;;5012878;28;20236;-69
2022/12/15 16:28:02;;;;;;;55.57;30.17;;;;;;;;;;5013176;28;20246;-68
2022/12/15 16:30:28;;;;;;;51.27;29.30;;;;;;;;;;5024585;28;20301;-69
2022/12/15 16:32:54;;;;;;;52.83;30.33;;;;;;;;;;5017688;28;20270;-69
2022/12/15 16:35:23;;;;;;;57.33;30.10;;;;;;;;;;5009766;28;20182;-69
2022/12/15 16:37:49;;;;;;;53.20;30.67;;;;;;;;;;5016383;28;20280;-69
2022/12/15 16:40:18;;;;;;;54.43;30.10;;;;;;;;;;5014322;28;20213;-69
2022/12/15 16:42:49;;;;;;;57.43;30.80;;;;;;;;;;5025920;28;20200;-70
2022/12/15 16:45:17;;;;;;;59.03;30.20;;;;;;;;;;5024564;28;20221;-68
2022/12/15 16:47:45;;;;;;;62.77;31.13;;;;;;;;;;5026176;28;20213;-69
2022/12/15 16:50:13;;;;;;;58.33;32.27;;;;;;;;;;5029411;28;20271;-69
2022/12/15 16:52:40;;;;;;;54.50;29.30;;;;;;;;;;5026370;28;22073;-70
2022/12/15 16:55:08;;;;;;;52.50;29.20;;;;;;;;;;5021543;28;20191;-69
2022/12/15 16:57:34;;;;;;;60.20;32.17;;;;;;;;;;5012269;28;20194;-69
2022/12/15 17:00:00;;;;;;;56.87;30.53;;;;;;;;;;5012019;28;20329;-69
2022/12/15 17:02:27;;;;;;;55.90;31.87;;;;;;;;;;5015199;28;20567;-69
2022/12/15 17:04:54;;;;;;;58.17;30.47;;;;;;;;;;5023457;28;20209;-70
2022/12/15 17:07:20;;;;;;;59.27;31.47;;;;;;;;;;5026978;28;20279;-69